Cubati, Brazil
Current Conditions -  °F | °C
As of 12:00 PM on Friday 19 Dec 2014 (Local Time) from SBKG Reporting Station
Broken Clouds Broken Clouds  
Wind Chill: 84°   Ceiling: 8000
Heat Index: 87°   Visibility: 6mi
Dew Point: 68°   Wind: 17mph
Humidity: 58%   Direction: 80°E
Pressure: 29.94"   Gusts: NA
Location:  6.87°S, 36.38°W
Report Text: SBKG 191500Z 08015KT 9999 SCT040 BKN080 29/20 Q1014
Loading
Personal Weather Stations






























Interactive Weather Map New forecast layout! Learn more

10-Day Weather Forecast

Advertisements
Track Severe Weather on mobile